sensor_id;sensor_type;location;lat;lon;timestamp;pressure;altitude;pressure_sealevel;temperature;humidity
53940;BME280;39850;43.324;21.916;2022-09-24T00:01:44;996.0;;;8.2;79.0
53940;BME280;39850;43.324;21.916;2022-09-24T00:06:25;996.0;;;8.2;78.0
53940;BME280;39850;43.324;21.916;2022-09-24T00:11:09;996.0;;;8.2;78.0
53940;BME280;39850;43.324;21.916;2022-09-24T00:58:04;996.0;;;8.2;80.0
53940;BME280;39850;43.324;21.916;2022-09-24T01:03:02;996.0;;;8.2;80.0
53940;BME280;39850;43.324;21.916;2022-09-24T01:07:41;996.0;;;7.8;80.0
53940;BME280;39850;43.324;21.916;2022-09-24T01:13:08;996.0;;;7.8;80.0
53940;BME280;39850;43.324;21.916;2022-09-24T01:18:28;996.0;;;7.8;80.0
53940;BME280;39850;43.324;21.916;2022-09-24T01:24:28;996.0;;;7.4;81.0
53940;BME280;39850;43.324;21.916;2022-09-24T01:30:02;996.0;;;7.4;81.0
53940;BME280;39850;43.324;21.916;2022-09-24T02:08:57;996.0;;;7.1;80.0
53940;BME280;39850;43.324;21.916;2022-09-24T02:13:53;996.0;;;7.1;80.0
53940;BME280;39850;43.324;21.916;2022-09-24T02:18:48;996.0;;;7.2;80.0
53940;BME280;39850;43.324;21.916;2022-09-24T02:23:54;996.0;;;7.2;80.0
53940;BME280;39850;43.324;21.916;2022-09-24T02:28:43;996.0;;;7.3;81.0
53940;BME280;39850;43.324;21.916;2022-09-24T02:33:28;996.0;;;7.3;81.0
53940;BME280;39850;43.324;21.916;2022-09-24T02:38:16;996.0;;;7.3;81.0
53940;BME280;39850;43.324;21.916;2022-09-24T02:42:54;996.0;;;7.3;81.0
53940;BME280;39850;43.324;21.916;2022-09-24T02:47:32;996.0;;;7.3;81.0
53940;BME280;39850;43.324;21.916;2022-09-24T02:52:09;996.0;;;7.3;81.0
53940;BME280;39850;43.324;21.916;2022-09-24T03:38:29;996.0;;;6.2;82.0
53940;BME280;39850;43.324;21.916;2022-09-24T03:43:06;996.0;;;6.2;82.0
53940;BME280;39850;43.324;21.916;2022-09-24T03:47:43;996.0;;;6.2;82.0
53940;BME280;39850;43.324;21.916;2022-09-24T03:52:20;996.0;;;6.2;82.0
53940;BME280;39850;43.324;21.916;2022-09-24T03:56:57;996.0;;;6.2;82.0
53940;BME280;39850;43.324;21.916;2022-09-24T04:01:34;996.0;;;6.2;82.0
53940;BME280;39850;43.324;21.916;2022-09-24T04:06:11;996.0;;;6.2;82.0
53940;BME280;39850;43.324;21.916;2022-09-24T04:10:50;996.0;;;6.2;82.0
53940;BME280;39850;43.324;21.916;2022-09-24T04:47:51;997.0;;;6.4;84.0
53940;BME280;39850;43.324;21.916;2022-09-24T04:52:29;997.0;;;6.4;84.0
53940;BME280;39850;43.324;21.916;2022-09-24T04:57:06;997.0;;;6.4;83.0
53940;BME280;39850;43.324;21.916;2022-09-24T05:01:43;997.0;;;6.4;83.0
53940;BME280;39850;43.324;21.916;2022-09-24T05:06:20;997.0;;;6.3;83.0
53940;BME280;39850;43.324;21.916;2022-09-24T05:10:57;997.0;;;6.3;83.0
53940;BME280;39850;43.324;21.916;2022-09-24T05:15:34;997.0;;;6.2;83.0
53940;BME280;39850;43.324;21.916;2022-09-24T05:20:14;997.0;;;6.2;83.0
53940;BME280;39850;43.324;21.916;2022-09-24T05:24:52;997.0;;;6.2;82.0
53940;BME280;39850;43.324;21.916;2022-09-24T05:29:28;997.0;;;6.2;82.0
53940;BME280;39850;43.324;21.916;2022-09-24T05:34:05;997.0;;;6.2;82.0
53940;BME280;39850;43.324;21.916;2022-09-24T06:06:22;997.0;;;8.2;79.0
53940;BME280;39850;43.324;21.916;2022-09-24T06:11:04;997.0;;;8.2;79.0
53940;BME280;39850;43.324;21.916;2022-09-24T06:15:42;997.0;;;8.2;79.0
53940;BME280;39850;43.324;21.916;2022-09-24T06:20:19;997.0;;;8.2;79.0
53940;BME280;39850;43.324;21.916;2022-09-24T06:24:57;997.0;;;8.6;78.0
53940;BME280;39850;43.324;21.916;2022-09-24T06:29:34;997.0;;;8.6;78.0
53940;BME280;39850;43.324;21.916;2022-09-24T06:34:11;997.0;;;8.6;78.0
53940;BME280;39850;43.324;21.916;2022-09-24T06:38:51;997.0;;;8.9;76.0
53940;BME280;39850;43.324;21.916;2022-09-24T06:43:29;997.0;;;8.9;76.0
53940;BME280;39850;43.324;21.916;2022-09-24T06:48:13;997.0;;;8.9;76.0
53940;BME280;39850;43.324;21.916;2022-09-24T06:52:51;997.0;;;8.9;76.0
53940;BME280;39850;43.324;21.916;2022-09-24T07:39:06;997.0;;;15.3;54.0
53940;BME280;39850;43.324;21.916;2022-09-24T07:43:44;997.0;;;15.3;54.0
53940;BME280;39850;43.324;21.916;2022-09-24T07:48:21;997.0;;;15.7;53.0
53940;BME280;39850;43.324;21.916;2022-09-24T07:52:59;997.0;;;15.7;53.0
53940;BME280;39850;43.324;21.916;2022-09-24T07:57:36;997.0;;;15.7;53.0
53940;BME280;39850;43.324;21.916;2022-09-24T08:02:18;997.0;;;15.7;53.0
53940;BME280;39850;43.324;21.916;2022-09-24T08:06:55;997.0;;;16.1;53.0
53940;BME280;39850;43.324;21.916;2022-09-24T08:11:32;997.0;;;16.1;53.0
53940;BME280;39850;43.324;21.916;2022-09-24T08:59:04;996.0;;;18.0;50.0
53940;BME280;39850;43.324;21.916;2022-09-24T09:04:25;996.0;;;18.0;50.0
53940;BME280;39850;43.324;21.916;2022-09-24T09:09:23;996.0;;;18.0;48.0
53940;BME280;39850;43.324;21.916;2022-09-24T09:14:32;996.0;;;18.0;48.0
53940;BME280;39850;43.324;21.916;2022-09-24T09:19:32;996.0;;;18.0;48.0
53940;BME280;39850;43.324;21.916;2022-09-24T09:24:42;996.0;;;18.0;48.0
53940;BME280;39850;43.324;21.916;2022-09-24T09:29:26;996.0;;;18.1;47.0
53940;BME280;39850;43.324;21.916;2022-09-24T09:35:04;996.0;;;18.1;47.0
53940;BME280;39850;43.324;21.916;2022-09-24T10:10:23;996.0;;;18.9;49.0
53940;BME280;39850;43.324;21.916;2022-09-24T10:15:21;996.0;;;18.9;49.0
53940;BME280;39850;43.324;21.916;2022-09-24T10:20:22;996.0;;;19.0;48.0
53940;BME280;39850;43.324;21.916;2022-09-24T10:25:15;996.0;;;19.0;48.0
53940;BME280;39850;43.324;21.916;2022-09-24T10:30:00;996.0;;;18.9;48.0
53940;BME280;39850;43.324;21.916;2022-09-24T10:35:00;996.0;;;18.9;48.0
53940;BME280;39850;43.324;21.916;2022-09-24T10:39:41;996.0;;;19.0;48.0
53940;BME280;39850;43.324;21.916;2022-09-24T10:44:23;996.0;;;19.0;48.0
53940;BME280;39850;43.324;21.916;2022-09-24T10:50:24;996.0;;;18.9;48.0
53940;BME280;39850;43.324;21.916;2022-09-24T10:55:49;996.0;;;18.9;48.0
53940;BME280;39850;43.324;21.916;2022-09-24T11:28:56;995.0;;;19.4;42.0
53940;BME280;39850;43.324;21.916;2022-09-24T11:34:56;995.0;;;19.4;42.0
53940;BME280;39850;43.324;21.916;2022-09-24T11:40:40;995.0;;;19.7;42.0
53940;BME280;39850;43.324;21.916;2022-09-24T11:46:33;995.0;;;20.0;42.0
53940;BME280;39850;43.324;21.916;2022-09-24T11:52:06;995.0;;;20.0;42.0
53940;BME280;39850;43.324;21.916;2022-09-24T11:57:10;995.0;;;20.0;40.0
53940;BME280;39850;43.324;21.916;2022-09-24T12:02:17;995.0;;;20.0;40.0
53940;BME280;39850;43.324;21.916;2022-09-24T12:07:31;995.0;;;20.0;38.0
53940;BME280;39850;43.324;21.916;2022-09-24T12:12:34;995.0;;;20.0;38.0
53940;BME280;39850;43.324;21.916;2022-09-24T12:47:29;994.0;;;19.1;42.0
53940;BME280;39850;43.324;21.916;2022-09-24T12:52:33;994.0;;;19.1;42.0
53940;BME280;39850;43.324;21.916;2022-09-24T12:57:23;994.0;;;19.1;42.0
53940;BME280;39850;43.324;21.916;2022-09-24T13:02:21;994.0;;;19.1;42.0
53940;BME280;39850;43.324;21.916;2022-09-24T13:07:01;994.0;;;19.1;42.0
53940;BME280;39850;43.324;21.916;2022-09-24T13:11:39;994.0;;;19.1;42.0
53940;BME280;39850;43.324;21.916;2022-09-24T13:16:20;994.0;;;19.0;42.0
53940;BME280;39850;43.324;21.916;2022-09-24T13:21:17;994.0;;;19.0;42.0
53940;BME280;39850;43.324;21.916;2022-09-24T13:26:07;994.0;;;19.0;42.0
53940;BME280;39850;43.324;21.916;2022-09-24T13:31:17;994.0;;;18.9;42.0
53940;BME280;39850;43.324;21.916;2022-09-24T14:10:25;994.0;;;19.1;39.0
53940;BME280;39850;43.324;21.916;2022-09-24T14:15:17;994.0;;;19.1;39.0
53940;BME280;39850;43.324;21.916;2022-09-24T14:19:56;994.0;;;19.1;40.0
53940;BME280;39850;43.324;21.916;2022-09-24T14:24:57;994.0;;;19.1;40.0
53940;BME280;39850;43.324;21.916;2022-09-24T14:29:54;993.0;;;19.1;39.0
53940;BME280;39850;43.324;21.916;2022-09-24T14:34:42;993.0;;;19.1;39.0
53940;BME280;39850;43.324;21.916;2022-09-24T14:39:28;993.0;;;19.1;40.0
53940;BME280;39850;43.324;21.916;2022-09-24T14:44:27;993.0;;;19.1;40.0
53940;BME280;39850;43.324;21.916;2022-09-24T14:49:26;993.0;;;19.1;39.0
53940;BME280;39850;43.324;21.916;2022-09-24T14:54:34;993.0;;;19.1;39.0
53940;BME280;39850;43.324;21.916;2022-09-24T15:28:38;993.0;;;18.0;42.0
53940;BME280;39850;43.324;21.916;2022-09-24T15:33:15;993.0;;;18.0;42.0
53940;BME280;39850;43.324;21.916;2022-09-24T15:37:52;993.0;;;18.0;42.0
53940;BME280;39850;43.324;21.916;2022-09-24T15:42:29;993.0;;;18.0;42.0
53940;BME280;39850;43.324;21.916;2022-09-24T15:47:06;993.0;;;18.0;42.0
53940;BME280;39850;43.324;21.916;2022-09-24T15:51:43;993.0;;;18.0;42.0
53940;BME280;39850;43.324;21.916;2022-09-24T15:56:20;993.0;;;18.0;42.0
53940;BME280;39850;43.324;21.916;2022-09-24T16:00:57;993.0;;;18.0;42.0
53940;BME280;39850;43.324;21.916;2022-09-24T16:05:34;993.0;;;18.0;42.0
53940;BME280;39850;43.324;21.916;2022-09-24T16:47:13;993.0;;;17.3;49.0
53940;BME280;39850;43.324;21.916;2022-09-24T16:51:50;993.0;;;17.3;49.0
53940;BME280;39850;43.324;21.916;2022-09-24T16:56:27;993.0;;;17.3;49.0
53940;BME280;39850;43.324;21.916;2022-09-24T17:01:14;993.0;;;16.9;49.0
53940;BME280;39850;43.324;21.916;2022-09-24T17:05:50;993.0;;;16.9;49.0
53940;BME280;39850;43.324;21.916;2022-09-24T17:10:27;993.0;;;16.5;49.0
53940;BME280;39850;43.324;21.916;2022-09-24T17:15:07;993.0;;;16.5;49.0
53940;BME280;39850;43.324;21.916;2022-09-24T17:19:45;993.0;;;16.4;51.0
53940;BME280;39850;43.324;21.916;2022-09-24T17:24:22;993.0;;;16.4;51.0
53940;BME280;39850;43.324;21.916;2022-09-24T17:28:59;993.0;;;16.3;52.0
53940;BME280;39850;43.324;21.916;2022-09-24T17:33:37;993.0;;;16.3;52.0
53940;BME280;39850;43.324;21.916;2022-09-24T18:11:04;994.0;;;14.6;61.0
53940;BME280;39850;43.324;21.916;2022-09-24T18:15:41;994.0;;;14.6;61.0
53940;BME280;39850;43.324;21.916;2022-09-24T18:20:20;994.0;;;14.1;61.0
53940;BME280;39850;43.324;21.916;2022-09-24T18:24:58;994.0;;;14.1;61.0
53940;BME280;39850;43.324;21.916;2022-09-24T18:29:35;994.0;;;14.1;61.0
53940;BME280;39850;43.324;21.916;2022-09-24T18:34:17;994.0;;;14.1;61.0
53940;BME280;39850;43.324;21.916;2022-09-24T18:38:54;994.0;;;13.6;62.0
53940;BME280;39850;43.324;21.916;2022-09-24T18:43:32;994.0;;;13.6;62.0
53940;BME280;39850;43.324;21.916;2022-09-24T19:30:12;994.0;;;13.7;61.0
53940;BME280;39850;43.324;21.916;2022-09-24T19:34:49;994.0;;;13.7;61.0
53940;BME280;39850;43.324;21.916;2022-09-24T19:39:26;994.0;;;13.7;62.0
53940;BME280;39850;43.324;21.916;2022-09-24T19:44:04;994.0;;;13.7;62.0
53940;BME280;39850;43.324;21.916;2022-09-24T19:48:48;994.0;;;13.7;62.0
53940;BME280;39850;43.324;21.916;2022-09-24T19:53:27;994.0;;;13.7;62.0
53940;BME280;39850;43.324;21.916;2022-09-24T19:58:04;994.0;;;13.7;62.0
53940;BME280;39850;43.324;21.916;2022-09-24T20:02:41;994.0;;;13.7;62.0
53940;BME280;39850;43.324;21.916;2022-09-24T20:07:19;994.0;;;13.7;62.0
53940;BME280;39850;43.324;21.916;2022-09-24T20:48:59;994.0;;;11.8;65.0
53940;BME280;39850;43.324;21.916;2022-09-24T20:53:37;994.0;;;11.8;65.0
53940;BME280;39850;43.324;21.916;2022-09-24T20:58:15;994.0;;;11.7;65.0
53940;BME280;39850;43.324;21.916;2022-09-24T21:02:52;994.0;;;11.7;65.0
53940;BME280;39850;43.324;21.916;2022-09-24T21:07:29;994.0;;;11.7;65.0
53940;BME280;39850;43.324;21.916;2022-09-24T21:12:07;994.0;;;11.7;65.0
53940;BME280;39850;43.324;21.916;2022-09-24T21:16:44;994.0;;;11.7;65.0
53940;BME280;39850;43.324;21.916;2022-09-24T21:21:32;994.0;;;11.6;65.0
53940;BME280;39850;43.324;21.916;2022-09-24T21:26:22;994.0;;;11.6;65.0
53940;BME280;39850;43.324;21.916;2022-09-24T22:22:05;995.0;;;11.8;68.0
53940;BME280;39850;43.324;21.916;2022-09-24T22:26:43;995.0;;;11.8;68.0
53940;BME280;39850;43.324;21.916;2022-09-24T22:31:21;995.0;;;11.8;68.0
53940;BME280;39850;43.324;21.916;2022-09-24T22:35:58;995.0;;;11.8;68.0
53940;BME280;39850;43.324;21.916;2022-09-24T22:40:36;995.0;;;11.8;68.0
53940;BME280;39850;43.324;21.916;2022-09-24T22:45:14;995.0;;;11.8;68.0
53940;BME280;39850;43.324;21.916;2022-09-24T23:40:55;994.0;;;10.9;72.0
53940;BME280;39850;43.324;21.916;2022-09-24T23:45:33;994.0;;;10.9;72.0
53940;BME280;39850;43.324;21.916;2022-09-24T23:50:10;994.0;;;10.8;72.0
53940;BME280;39850;43.324;21.916;2022-09-24T23:54:47;994.0;;;10.8;72.0
53940;BME280;39850;43.324;21.916;2022-09-24T23:59:24;994.0;;;10.8;72.0
